sensor_id;sensor_type;location;lat;lon;timestamp;P1;durP1;ratioP1;P2;durP2;ratioP2
42514;SDS011;28144;49.920;18.730;2023-05-10T00:00:45;64.10;;;24.13;;
42514;SDS011;28144;49.920;18.730;2023-05-10T00:03:11;60.73;;;22.97;;
42514;SDS011;28144;49.920;18.730;2023-05-10T00:05:37;31.07;;;14.33;;
42514;SDS011;28144;49.920;18.730;2023-05-10T00:08:02;25.33;;;15.00;;
42514;SDS011;28144;49.920;18.730;2023-05-10T00:10:28;29.23;;;13.27;;
42514;SDS011;28144;49.920;18.730;2023-05-10T00:12:54;35.83;;;16.33;;
42514;SDS011;28144;49.920;18.730;2023-05-10T00:15:20;25.30;;;11.80;;
42514;SDS011;28144;49.920;18.730;2023-05-10T00:17:45;23.40;;;12.50;;
42514;SDS011;28144;49.920;18.730;2023-05-10T00:20:11;22.20;;;11.97;;
42514;SDS011;28144;49.920;18.730;2023-05-10T00:22:37;29.27;;;15.27;;
42514;SDS011;28144;49.920;18.730;2023-05-10T00:25:03;32.70;;;16.63;;
42514;SDS011;28144;49.920;18.730;2023-05-10T00:27:29;24.20;;;12.90;;
42514;SDS011;28144;49.920;18.730;2023-05-10T00:29:55;23.40;;;13.07;;
42514;SDS011;28144;49.920;18.730;2023-05-10T00:32:20;25.17;;;10.60;;
42514;SDS011;28144;49.920;18.730;2023-05-10T00:34:46;21.00;;;11.40;;
42514;SDS011;28144;49.920;18.730;2023-05-10T00:37:12;22.50;;;12.87;;
42514;SDS011;28144;49.920;18.730;2023-05-10T00:39:37;17.63;;;10.80;;
42514;SDS011;28144;49.920;18.730;2023-05-10T00:42:03;28.43;;;14.17;;
42514;SDS011;28144;49.920;18.730;2023-05-10T00:44:29;22.27;;;12.18;;
42514;SDS011;28144;49.920;18.730;2023-05-10T00:46:56;22.27;;;11.32;;
42514;SDS011;28144;49.920;18.730;2023-05-10T00:49:22;20.15;;;11.32;;
42514;SDS011;28144;49.920;18.730;2023-05-10T00:51:48;32.77;;;13.87;;
42514;SDS011;28144;49.920;18.730;2023-05-10T00:54:14;26.83;;;13.82;;
42514;SDS011;28144;49.920;18.730;2023-05-10T00:56:40;22.37;;;11.90;;
42514;SDS011;28144;49.920;18.730;2023-05-10T00:59:07;22.03;;;11.53;;
42514;SDS011;28144;49.920;18.730;2023-05-10T01:01:33;20.70;;;10.93;;
42514;SDS011;28144;49.920;18.730;2023-05-10T01:03:59;22.30;;;10.70;;
42514;SDS011;28144;49.920;18.730;2023-05-10T01:06:24;22.43;;;11.40;;
42514;SDS011;28144;49.920;18.730;2023-05-10T01:08:50;25.53;;;12.10;;
42514;SDS011;28144;49.920;18.730;2023-05-10T01:11:16;20.40;;;11.87;;
42514;SDS011;28144;49.920;18.730;2023-05-10T01:13:42;22.33;;;11.97;;
42514;SDS011;28144;49.920;18.730;2023-05-10T01:16:08;20.52;;;10.55;;
42514;SDS011;28144;49.920;18.730;2023-05-10T01:18:38;19.50;;;10.07;;
42514;SDS011;28144;49.920;18.730;2023-05-10T01:21:12;21.23;;;10.53;;
42514;SDS011;28144;49.920;18.730;2023-05-10T01:24:01;20.13;;;10.43;;
42514;SDS011;28144;49.920;18.730;2023-05-10T01:40:55;21.23;;;11.53;;
42514;SDS011;28144;49.920;18.730;2023-05-10T01:43:51;19.50;;;11.93;;
42514;SDS011;28144;49.920;18.730;2023-05-10T01:46:27;26.67;;;14.07;;
42514;SDS011;28144;49.920;18.730;2023-05-10T01:48:57;29.10;;;16.23;;
42514;SDS011;28144;49.920;18.730;2023-05-10T01:51:25;27.23;;;14.90;;
42514;SDS011;28144;49.920;18.730;2023-05-10T01:53:54;47.37;;;23.70;;
42514;SDS011;28144;49.920;18.730;2023-05-10T01:56:24;28.27;;;16.23;;
42514;SDS011;28144;49.920;18.730;2023-05-10T01:58:51;25.87;;;14.83;;
42514;SDS011;28144;49.920;18.730;2023-05-10T02:01:17;25.10;;;13.20;;
42514;SDS011;28144;49.920;18.730;2023-05-10T02:06:10;19.77;;;10.97;;
42514;SDS011;28144;49.920;18.730;2023-05-10T02:08:38;23.73;;;11.00;;
42514;SDS011;28144;49.920;18.730;2023-05-10T02:11:05;29.87;;;15.23;;
42514;SDS011;28144;49.920;18.730;2023-05-10T02:13:31;19.23;;;9.17;;
42514;SDS011;28144;49.920;18.730;2023-05-10T02:15:58;28.93;;;11.57;;
42514;SDS011;28144;49.920;18.730;2023-05-10T02:18:24;34.20;;;17.30;;
42514;SDS011;28144;49.920;18.730;2023-05-10T02:23:16;17.30;;;9.23;;
42514;SDS011;28144;49.920;18.730;2023-05-10T02:25:43;20.45;;;10.48;;
42514;SDS011;28144;49.920;18.730;2023-05-10T02:30:36;17.27;;;10.13;;
42514;SDS011;28144;49.920;18.730;2023-05-10T02:33:02;22.57;;;10.80;;
42514;SDS011;28144;49.920;18.730;2023-05-10T02:35:29;17.77;;;9.40;;
42514;SDS011;28144;49.920;18.730;2023-05-10T02:37:56;17.00;;;8.80;;
42514;SDS011;28144;49.920;18.730;2023-05-10T02:40:22;17.42;;;9.35;;
42514;SDS011;28144;49.920;18.730;2023-05-10T02:42:50;16.02;;;9.02;;
42514;SDS011;28144;49.920;18.730;2023-05-10T02:45:18;19.73;;;9.80;;
42514;SDS011;28144;49.920;18.730;2023-05-10T02:47:46;16.00;;;9.17;;
42514;SDS011;28144;49.920;18.730;2023-05-10T02:50:12;25.60;;;9.23;;
42514;SDS011;28144;49.920;18.730;2023-05-10T02:52:44;18.10;;;8.07;;
42514;SDS011;28144;49.920;18.730;2023-05-10T02:55:13;15.80;;;7.70;;
42514;SDS011;28144;49.920;18.730;2023-05-10T02:58:02;17.33;;;8.53;;
42514;SDS011;28144;49.920;18.730;2023-05-10T03:00:27;18.45;;;9.15;;
42514;SDS011;28144;49.920;18.730;2023-05-10T03:02:53;16.00;;;9.17;;
42514;SDS011;28144;49.920;18.730;2023-05-10T03:05:19;15.43;;;9.20;;
42514;SDS011;28144;49.920;18.730;2023-05-10T03:07:45;19.60;;;9.93;;
42514;SDS011;28144;49.920;18.730;2023-05-10T03:10:11;21.15;;;11.80;;
42514;SDS011;28144;49.920;18.730;2023-05-10T03:12:41;25.37;;;10.80;;
42514;SDS011;28144;49.920;18.730;2023-05-10T03:15:31;17.43;;;9.53;;
42514;SDS011;28144;49.920;18.730;2023-05-10T03:21:02;15.67;;;9.63;;
42514;SDS011;28144;49.920;18.730;2023-05-10T03:23:33;18.00;;;9.93;;
42514;SDS011;28144;49.920;18.730;2023-05-10T03:26:01;20.70;;;10.60;;
42514;SDS011;28144;49.920;18.730;2023-05-10T03:28:28;21.13;;;11.90;;
42514;SDS011;28144;49.920;18.730;2023-05-10T03:30:54;27.17;;;14.00;;
42514;SDS011;28144;49.920;18.730;2023-05-10T03:33:20;29.92;;;13.90;;
42514;SDS011;28144;49.920;18.730;2023-05-10T03:35:46;21.20;;;11.17;;
42514;SDS011;28144;49.920;18.730;2023-05-10T03:38:12;21.80;;;12.67;;
42514;SDS011;28144;49.920;18.730;2023-05-10T03:40:38;22.25;;;10.98;;
42514;SDS011;28144;49.920;18.730;2023-05-10T03:43:04;14.93;;;9.23;;
42514;SDS011;28144;49.920;18.730;2023-05-10T03:45:30;15.37;;;9.83;;
42514;SDS011;28144;49.920;18.730;2023-05-10T03:47:56;17.53;;;9.50;;
42514;SDS011;28144;49.920;18.730;2023-05-10T03:50:23;15.80;;;9.30;;
42514;SDS011;28144;49.920;18.730;2023-05-10T03:52:48;17.63;;;9.63;;
42514;SDS011;28144;49.920;18.730;2023-05-10T03:55:14;18.40;;;8.87;;
42514;SDS011;28144;49.920;18.730;2023-05-10T03:57:40;16.33;;;9.60;;
42514;SDS011;28144;49.920;18.730;2023-05-10T04:00:06;17.57;;;8.33;;
42514;SDS011;28144;49.920;18.730;2023-05-10T04:02:32;22.88;;;9.93;;
42514;SDS011;28144;49.920;18.730;2023-05-10T04:04:58;23.30;;;10.83;;
42514;SDS011;28144;49.920;18.730;2023-05-10T04:07:23;20.13;;;10.20;;
42514;SDS011;28144;49.920;18.730;2023-05-10T04:09:49;17.60;;;9.43;;
42514;SDS011;28144;49.920;18.730;2023-05-10T04:12:15;16.03;;;9.30;;
42514;SDS011;28144;49.920;18.730;2023-05-10T04:14:41;19.93;;;10.30;;
42514;SDS011;28144;49.920;18.730;2023-05-10T04:17:07;19.47;;;9.27;;
42514;SDS011;28144;49.920;18.730;2023-05-10T04:19:33;23.98;;;10.52;;
42514;SDS011;28144;49.920;18.730;2023-05-10T04:21:59;17.40;;;10.23;;
42514;SDS011;28144;49.920;18.730;2023-05-10T04:24:25;22.10;;;11.07;;
42514;SDS011;28144;49.920;18.730;2023-05-10T04:26:51;23.47;;;11.20;;
42514;SDS011;28144;49.920;18.730;2023-05-10T04:29:16;19.87;;;10.37;;
42514;SDS011;28144;49.920;18.730;2023-05-10T04:31:42;16.87;;;9.97;;
42514;SDS011;28144;49.920;18.730;2023-05-10T04:34:08;17.90;;;10.13;;
42514;SDS011;28144;49.920;18.730;2023-05-10T04:36:33;15.77;;;10.00;;
42514;SDS011;28144;49.920;18.730;2023-05-10T04:39:01;16.97;;;10.37;;
42514;SDS011;28144;49.920;18.730;2023-05-10T04:41:30;17.33;;;9.83;;
42514;SDS011;28144;49.920;18.730;2023-05-10T04:43:56;16.60;;;10.43;;
42514;SDS011;28144;49.920;18.730;2023-05-10T04:46:22;18.73;;;10.00;;
42514;SDS011;28144;49.920;18.730;2023-05-10T04:48:47;16.63;;;9.50;;
42514;SDS011;28144;49.920;18.730;2023-05-10T04:51:13;19.20;;;10.57;;
42514;SDS011;28144;49.920;18.730;2023-05-10T04:53:39;22.07;;;10.53;;
42514;SDS011;28144;49.920;18.730;2023-05-10T04:56:05;16.77;;;10.33;;
42514;SDS011;28144;49.920;18.730;2023-05-10T04:58:31;16.23;;;9.45;;
42514;SDS011;28144;49.920;18.730;2023-05-10T05:00:56;15.43;;;9.80;;
42514;SDS011;28144;49.920;18.730;2023-05-10T05:03:22;14.27;;;9.57;;
42514;SDS011;28144;49.920;18.730;2023-05-10T05:05:48;20.77;;;10.53;;
42514;SDS011;28144;49.920;18.730;2023-05-10T05:08:14;28.50;;;12.10;;
42514;SDS011;28144;49.920;18.730;2023-05-10T05:10:39;15.43;;;8.90;;
42514;SDS011;28144;49.920;18.730;2023-05-10T05:13:05;24.80;;;10.57;;
42514;SDS011;28144;49.920;18.730;2023-05-10T05:15:31;18.13;;;9.47;;
42514;SDS011;28144;49.920;18.730;2023-05-10T05:17:57;18.47;;;9.10;;
42514;SDS011;28144;49.920;18.730;2023-05-10T05:20:22;16.03;;;9.67;;
42514;SDS011;28144;49.920;18.730;2023-05-10T05:22:48;18.93;;;8.03;;
42514;SDS011;28144;49.920;18.730;2023-05-10T05:25:14;21.13;;;8.37;;
42514;SDS011;28144;49.920;18.730;2023-05-10T05:27:40;16.65;;;8.63;;
42514;SDS011;28144;49.920;18.730;2023-05-10T05:30:06;19.57;;;7.73;;
42514;SDS011;28144;49.920;18.730;2023-05-10T05:32:33;19.38;;;8.27;;
42514;SDS011;28144;49.920;18.730;2023-05-10T05:34:58;17.87;;;8.43;;
42514;SDS011;28144;49.920;18.730;2023-05-10T05:37:24;16.58;;;8.02;;
42514;SDS011;28144;49.920;18.730;2023-05-10T05:39:50;13.93;;;7.23;;
42514;SDS011;28144;49.920;18.730;2023-05-10T05:42:20;15.37;;;7.97;;
42514;SDS011;28144;49.920;18.730;2023-05-10T05:44:46;12.40;;;7.30;;
42514;SDS011;28144;49.920;18.730;2023-05-10T05:47:13;12.93;;;7.23;;
42514;SDS011;28144;49.920;18.730;2023-05-10T05:49:39;16.30;;;7.60;;
42514;SDS011;28144;49.920;18.730;2023-05-10T05:52:08;17.60;;;7.97;;
42514;SDS011;28144;49.920;18.730;2023-05-10T05:54:33;17.97;;;6.73;;
42514;SDS011;28144;49.920;18.730;2023-05-10T05:57:00;10.20;;;6.25;;
42514;SDS011;28144;49.920;18.730;2023-05-10T06:01:52;13.38;;;7.60;;
42514;SDS011;28144;49.920;18.730;2023-05-10T06:04:18;16.80;;;7.13;;
42514;SDS011;28144;49.920;18.730;2023-05-10T06:06:46;12.80;;;6.93;;
42514;SDS011;28144;49.920;18.730;2023-05-10T06:09:12;11.60;;;6.73;;
42514;SDS011;28144;49.920;18.730;2023-05-10T06:11:38;20.65;;;6.90;;
42514;SDS011;28144;49.920;18.730;2023-05-10T06:14:04;13.13;;;6.13;;
42514;SDS011;28144;49.920;18.730;2023-05-10T06:16:33;15.05;;;7.65;;
42514;SDS011;28144;49.920;18.730;2023-05-10T06:18:59;15.05;;;7.35;;
42514;SDS011;28144;49.920;18.730;2023-05-10T06:21:25;14.05;;;6.82;;
42514;SDS011;28144;49.920;18.730;2023-05-10T06:23:51;15.33;;;7.13;;
42514;SDS011;28144;49.920;18.730;2023-05-10T06:26:17;10.57;;;6.73;;
42514;SDS011;28144;49.920;18.730;2023-05-10T06:28:42;13.13;;;7.03;;
42514;SDS011;28144;49.920;18.730;2023-05-10T06:31:08;15.17;;;7.67;;
42514;SDS011;28144;49.920;18.730;2023-05-10T06:33:36;12.50;;;6.95;;
42514;SDS011;28144;49.920;18.730;2023-05-10T06:36:02;15.63;;;6.40;;
42514;SDS011;28144;49.920;18.730;2023-05-10T06:38:28;10.18;;;5.53;;
42514;SDS011;28144;49.920;18.730;2023-05-10T06:40:54;11.17;;;6.80;;
42514;SDS011;28144;49.920;18.730;2023-05-10T06:43:20;20.40;;;7.33;;
42514;SDS011;28144;49.920;18.730;2023-05-10T06:45:47;9.38;;;6.22;;
42514;SDS011;28144;49.920;18.730;2023-05-10T06:50:38;9.18;;;5.25;;
42514;SDS011;28144;49.920;18.730;2023-05-10T06:53:04;12.40;;;6.00;;
42514;SDS011;28144;49.920;18.730;2023-05-10T06:55:30;8.73;;;5.15;;
42514;SDS011;28144;49.920;18.730;2023-05-10T06:57:56;9.07;;;5.10;;
42514;SDS011;28144;49.920;18.730;2023-05-10T07:00:22;8.80;;;4.57;;
42514;SDS011;28144;49.920;18.730;2023-05-10T07:02:47;9.13;;;4.53;;
42514;SDS011;28144;49.920;18.730;2023-05-10T07:05:14;9.38;;;5.35;;
42514;SDS011;28144;49.920;18.730;2023-05-10T07:07:40;8.38;;;4.85;;
42514;SDS011;28144;49.920;18.730;2023-05-10T07:10:06;7.80;;;4.85;;
42514;SDS011;28144;49.920;18.730;2023-05-10T07:12:33;10.43;;;4.85;;
42514;SDS011;28144;49.920;18.730;2023-05-10T07:14:59;8.90;;;4.03;;
42514;SDS011;28144;49.920;18.730;2023-05-10T07:17:24;10.60;;;5.00;;
42514;SDS011;28144;49.920;18.730;2023-05-10T07:19:50;6.75;;;3.53;;
42514;SDS011;28144;49.920;18.730;2023-05-10T07:22:16;6.67;;;3.37;;
42514;SDS011;28144;49.920;18.730;2023-05-10T07:24:42;8.20;;;4.32;;
42514;SDS011;28144;49.920;18.730;2023-05-10T07:27:08;9.73;;;4.47;;
42514;SDS011;28144;49.920;18.730;2023-05-10T07:29:34;8.15;;;4.55;;
42514;SDS011;28144;49.920;18.730;2023-05-10T07:32:00;8.40;;;3.97;;
42514;SDS011;28144;49.920;18.730;2023-05-10T07:34:26;11.68;;;3.97;;
42514;SDS011;28144;49.920;18.730;2023-05-10T07:36:54;5.10;;;2.83;;
42514;SDS011;28144;49.920;18.730;2023-05-10T07:39:19;9.30;;;4.78;;
42514;SDS011;28144;49.920;18.730;2023-05-10T07:41:48;8.32;;;4.50;;
42514;SDS011;28144;49.920;18.730;2023-05-10T07:44:14;6.50;;;4.10;;
42514;SDS011;28144;49.920;18.730;2023-05-10T07:46:39;11.03;;;4.03;;
42514;SDS011;28144;49.920;18.730;2023-05-10T07:49:05;11.10;;;3.90;;
42514;SDS011;28144;49.920;18.730;2023-05-10T07:51:31;7.23;;;3.83;;
42514;SDS011;28144;49.920;18.730;2023-05-10T07:53:57;6.47;;;3.65;;
42514;SDS011;28144;49.920;18.730;2023-05-10T07:56:24;8.07;;;3.37;;
42514;SDS011;28144;49.920;18.730;2023-05-10T07:58:52;9.45;;;4.10;;
42514;SDS011;28144;49.920;18.730;2023-05-10T08:03:45;5.05;;;3.22;;
42514;SDS011;28144;49.920;18.730;2023-05-10T08:06:11;6.77;;;3.07;;
42514;SDS011;28144;49.920;18.730;2023-05-10T08:08:37;8.35;;;3.05;;
42514;SDS011;28144;49.920;18.730;2023-05-10T08:11:03;6.67;;;2.83;;
42514;SDS011;28144;49.920;18.730;2023-05-10T08:13:29;5.80;;;3.10;;
42514;SDS011;28144;49.920;18.730;2023-05-10T08:15:56;6.93;;;2.95;;
42514;SDS011;28144;49.920;18.730;2023-05-10T08:18:22;10.25;;;3.05;;
42514;SDS011;28144;49.920;18.730;2023-05-10T08:20:48;8.03;;;3.00;;
42514;SDS011;28144;49.920;18.730;2023-05-10T08:23:13;4.65;;;2.75;;
42514;SDS011;28144;49.920;18.730;2023-05-10T08:25:39;10.30;;;2.83;;
42514;SDS011;28144;49.920;18.730;2023-05-10T08:28:05;6.43;;;2.85;;
42514;SDS011;28144;49.920;18.730;2023-05-10T08:30:31;5.80;;;2.20;;
42514;SDS011;28144;49.920;18.730;2023-05-10T08:32:56;4.53;;;2.70;;
42514;SDS011;28144;49.920;18.730;2023-05-10T08:35:22;9.80;;;2.93;;
42514;SDS011;28144;49.920;18.730;2023-05-10T08:37:48;6.70;;;2.35;;
42514;SDS011;28144;49.920;18.730;2023-05-10T08:40:13;6.13;;;2.67;;
42514;SDS011;28144;49.920;18.730;2023-05-10T08:42:40;3.65;;;1.95;;
42514;SDS011;28144;49.920;18.730;2023-05-10T08:45:09;2.80;;;1.80;;
42514;SDS011;28144;49.920;18.730;2023-05-10T08:47:36;6.60;;;1.92;;
42514;SDS011;28144;49.920;18.730;2023-05-10T08:50:02;6.37;;;2.80;;
42514;SDS011;28144;49.920;18.730;2023-05-10T08:52:28;3.40;;;2.10;;
42514;SDS011;28144;49.920;18.730;2023-05-10T08:54:55;7.57;;;2.60;;
42514;SDS011;28144;49.920;18.730;2023-05-10T08:57:21;6.00;;;3.55;;
42514;SDS011;28144;49.920;18.730;2023-05-10T08:59:47;4.33;;;2.43;;
42514;SDS011;28144;49.920;18.730;2023-05-10T09:02:13;6.40;;;3.10;;
42514;SDS011;28144;49.920;18.730;2023-05-10T09:04:39;3.97;;;1.90;;
42514;SDS011;28144;49.920;18.730;2023-05-10T09:07:06;2.53;;;1.80;;
42514;SDS011;28144;49.920;18.730;2023-05-10T09:11:57;3.83;;;2.03;;
42514;SDS011;28144;49.920;18.730;2023-05-10T09:14:23;4.20;;;2.10;;
42514;SDS011;28144;49.920;18.730;2023-05-10T09:16:51;7.50;;;2.58;;
42514;SDS011;28144;49.920;18.730;2023-05-10T09:19:19;4.60;;;2.25;;
42514;SDS011;28144;49.920;18.730;2023-05-10T09:21:45;7.10;;;2.63;;
42514;SDS011;28144;49.920;18.730;2023-05-10T09:24:11;7.30;;;2.77;;
42514;SDS011;28144;49.920;18.730;2023-05-10T09:26:45;3.13;;;2.00;;
42514;SDS011;28144;49.920;18.730;2023-05-10T09:31:52;6.47;;;2.60;;
42514;SDS011;28144;49.920;18.730;2023-05-10T09:34:29;5.35;;;2.00;;
42514;SDS011;28144;49.920;18.730;2023-05-10T09:36:56;5.45;;;3.03;;
42514;SDS011;28144;49.920;18.730;2023-05-10T09:39:36;7.07;;;2.65;;
42514;SDS011;28144;49.920;18.730;2023-05-10T09:42:06;5.15;;;2.65;;
42514;SDS011;28144;49.920;18.730;2023-05-10T09:44:34;3.95;;;2.03;;
42514;SDS011;28144;49.920;18.730;2023-05-10T09:47:01;5.38;;;2.22;;
42514;SDS011;28144;49.920;18.730;2023-05-10T09:49:26;3.78;;;2.10;;
42514;SDS011;28144;49.920;18.730;2023-05-10T09:51:59;9.95;;;2.85;;
42514;SDS011;28144;49.920;18.730;2023-05-10T09:54:26;4.30;;;2.45;;
42514;SDS011;28144;49.920;18.730;2023-05-10T09:56:52;9.73;;;2.58;;
42514;SDS011;28144;49.920;18.730;2023-05-10T09:59:17;6.17;;;2.63;;
42514;SDS011;28144;49.920;18.730;2023-05-10T10:01:49;7.32;;;2.85;;
42514;SDS011;28144;49.920;18.730;2023-05-10T10:04:15;5.57;;;2.72;;
42514;SDS011;28144;49.920;18.730;2023-05-10T10:06:41;8.07;;;2.78;;
42514;SDS011;28144;49.920;18.730;2023-05-10T10:09:07;4.17;;;3.10;;
42514;SDS011;28144;49.920;18.730;2023-05-10T10:11:34;6.53;;;2.83;;
42514;SDS011;28144;49.920;18.730;2023-05-10T10:14:04;4.25;;;2.63;;
42514;SDS011;28144;49.920;18.730;2023-05-10T10:18:56;5.35;;;2.78;;
42514;SDS011;28144;49.920;18.730;2023-05-10T10:21:22;6.68;;;3.58;;
42514;SDS011;28144;49.920;18.730;2023-05-10T10:23:48;7.15;;;3.50;;
42514;SDS011;28144;49.920;18.730;2023-05-10T10:26:15;13.20;;;2.35;;
42514;SDS011;28144;49.920;18.730;2023-05-10T10:31:36;8.10;;;3.53;;
42514;SDS011;28144;49.920;18.730;2023-05-10T10:34:06;9.02;;;2.92;;
42514;SDS011;28144;49.920;18.730;2023-05-10T10:36:42;7.70;;;3.50;;
42514;SDS011;28144;49.920;18.730;2023-05-10T10:39:10;5.88;;;3.05;;
42514;SDS011;28144;49.920;18.730;2023-05-10T10:41:58;6.53;;;3.40;;
42514;SDS011;28144;49.920;18.730;2023-05-10T10:47:37;5.03;;;2.80;;
42514;SDS011;28144;49.920;18.730;2023-05-10T10:52:21;7.47;;;3.00;;
42514;SDS011;28144;49.920;18.730;2023-05-10T10:54:58;4.90;;;2.63;;
42514;SDS011;28144;49.920;18.730;2023-05-10T10:57:26;7.35;;;2.67;;
42514;SDS011;28144;49.920;18.730;2023-05-10T11:00:17;3.80;;;2.25;;
42514;SDS011;28144;49.920;18.730;2023-05-10T11:02:58;3.70;;;2.13;;
42514;SDS011;28144;49.920;18.730;2023-05-10T11:07:57;4.83;;;2.20;;
42514;SDS011;28144;49.920;18.730;2023-05-10T11:10:24;4.00;;;2.20;;
42514;SDS011;28144;49.920;18.730;2023-05-10T11:13:07;5.07;;;2.60;;
42514;SDS011;28144;49.920;18.730;2023-05-10T11:18:23;9.25;;;2.53;;
42514;SDS011;28144;49.920;18.730;2023-05-10T11:20:50;6.38;;;2.22;;
42514;SDS011;28144;49.920;18.730;2023-05-10T11:23:17;2.90;;;1.70;;
42514;SDS011;28144;49.920;18.730;2023-05-10T11:25:43;7.65;;;2.42;;
42514;SDS011;28144;49.920;18.730;2023-05-10T11:28:10;3.10;;;2.10;;
42514;SDS011;28144;49.920;18.730;2023-05-10T11:33:06;10.40;;;2.83;;
42514;SDS011;28144;49.920;18.730;2023-05-10T11:35:39;6.57;;;2.60;;
42514;SDS011;28144;49.920;18.730;2023-05-10T11:38:06;4.25;;;1.92;;
42514;SDS011;28144;49.920;18.730;2023-05-10T11:40:32;3.35;;;2.08;;
42514;SDS011;28144;49.920;18.730;2023-05-10T11:42:58;4.00;;;1.70;;
42514;SDS011;28144;49.920;18.730;2023-05-10T11:45:24;3.43;;;1.70;;
42514;SDS011;28144;49.920;18.730;2023-05-10T11:47:51;5.68;;;2.17;;
42514;SDS011;28144;49.920;18.730;2023-05-10T11:50:17;4.73;;;2.27;;
42514;SDS011;28144;49.920;18.730;2023-05-10T11:52:42;3.72;;;2.38;;
42514;SDS011;28144;49.920;18.730;2023-05-10T11:55:08;4.63;;;2.57;;
42514;SDS011;28144;49.920;18.730;2023-05-10T11:57:34;3.25;;;1.98;;
42514;SDS011;28144;49.920;18.730;2023-05-10T12:02:29;3.58;;;2.47;;
42514;SDS011;28144;49.920;18.730;2023-05-10T12:04:55;4.63;;;2.13;;
42514;SDS011;28144;49.920;18.730;2023-05-10T12:07:21;5.75;;;2.10;;
42514;SDS011;28144;49.920;18.730;2023-05-10T12:10:06;5.73;;;2.20;;
42514;SDS011;28144;49.920;18.730;2023-05-10T12:12:39;4.13;;;1.90;;
42514;SDS011;28144;49.920;18.730;2023-05-10T12:15:20;3.15;;;1.80;;
42514;SDS011;28144;49.920;18.730;2023-05-10T12:17:48;3.90;;;1.80;;
42514;SDS011;28144;49.920;18.730;2023-05-10T12:20:14;5.15;;;1.95;;
42514;SDS011;28144;49.920;18.730;2023-05-10T12:22:45;2.88;;;1.80;;
42514;SDS011;28144;49.920;18.730;2023-05-10T12:25:12;4.72;;;2.30;;
42514;SDS011;28144;49.920;18.730;2023-05-10T12:27:38;5.60;;;1.90;;
42514;SDS011;28144;49.920;18.730;2023-05-10T12:30:04;2.50;;;1.70;;
42514;SDS011;28144;49.920;18.730;2023-05-10T12:32:43;3.25;;;1.63;;
42514;SDS011;28144;49.920;18.730;2023-05-10T12:35:09;4.30;;;2.03;;
42514;SDS011;28144;49.920;18.730;2023-05-10T12:37:35;3.05;;;1.85;;
42514;SDS011;28144;49.920;18.730;2023-05-10T12:40:08;2.30;;;1.60;;
42514;SDS011;28144;49.920;18.730;2023-05-10T12:42:35;2.83;;;1.52;;
42514;SDS011;28144;49.920;18.730;2023-05-10T12:45:01;2.25;;;1.55;;
42514;SDS011;28144;49.920;18.730;2023-05-10T12:47:28;4.65;;;1.60;;
42514;SDS011;28144;49.920;18.730;2023-05-10T12:49:54;4.38;;;1.90;;
42514;SDS011;28144;49.920;18.730;2023-05-10T12:52:20;2.40;;;2.00;;
42514;SDS011;28144;49.920;18.730;2023-05-10T12:54:45;7.00;;;1.93;;
42514;SDS011;28144;49.920;18.730;2023-05-10T12:59:37;4.68;;;2.00;;
42514;SDS011;28144;49.920;18.730;2023-05-10T13:02:03;5.45;;;1.75;;
42514;SDS011;28144;49.920;18.730;2023-05-10T13:04:29;5.50;;;2.28;;
42514;SDS011;28144;49.920;18.730;2023-05-10T13:06:55;5.65;;;1.77;;
42514;SDS011;28144;49.920;18.730;2023-05-10T13:09:27;3.47;;;1.80;;
42514;SDS011;28144;49.920;18.730;2023-05-10T13:11:55;3.70;;;1.75;;
42514;SDS011;28144;49.920;18.730;2023-05-10T13:14:20;1.80;;;1.27;;
42514;SDS011;28144;49.920;18.730;2023-05-10T13:16:47;3.13;;;1.70;;
42514;SDS011;28144;49.920;18.730;2023-05-10T13:19:13;3.88;;;1.42;;
42514;SDS011;28144;49.920;18.730;2023-05-10T13:24:07;4.88;;;1.92;;
42514;SDS011;28144;49.920;18.730;2023-05-10T13:26:33;4.55;;;1.60;;
42514;SDS011;28144;49.920;18.730;2023-05-10T13:28:59;5.25;;;1.73;;
42514;SDS011;28144;49.920;18.730;2023-05-10T13:31:25;3.78;;;2.00;;
42514;SDS011;28144;49.920;18.730;2023-05-10T13:33:51;2.90;;;1.60;;
42514;SDS011;28144;49.920;18.730;2023-05-10T13:36:17;2.50;;;1.65;;
42514;SDS011;28144;49.920;18.730;2023-05-10T13:38:42;4.97;;;2.00;;
42514;SDS011;28144;49.920;18.730;2023-05-10T13:41:08;2.83;;;1.20;;
42514;SDS011;28144;49.920;18.730;2023-05-10T13:43:34;2.83;;;1.70;;
42514;SDS011;28144;49.920;18.730;2023-05-10T13:46:01;4.22;;;2.20;;
42514;SDS011;28144;49.920;18.730;2023-05-10T13:48:27;5.78;;;2.55;;
42514;SDS011;28144;49.920;18.730;2023-05-10T13:50:53;8.35;;;2.78;;
42514;SDS011;28144;49.920;18.730;2023-05-10T13:53:19;8.00;;;3.63;;
42514;SDS011;28144;49.920;18.730;2023-05-10T13:55:45;7.43;;;2.97;;
42514;SDS011;28144;49.920;18.730;2023-05-10T13:58:10;4.90;;;2.67;;
42514;SDS011;28144;49.920;18.730;2023-05-10T14:00:36;5.00;;;3.00;;
42514;SDS011;28144;49.920;18.730;2023-05-10T14:03:02;5.07;;;2.13;;
42514;SDS011;28144;49.920;18.730;2023-05-10T14:05:30;7.85;;;3.55;;
42514;SDS011;28144;49.920;18.730;2023-05-10T14:07:55;5.13;;;2.03;;
42514;SDS011;28144;49.920;18.730;2023-05-10T14:10:22;5.82;;;2.60;;
42514;SDS011;28144;49.920;18.730;2023-05-10T14:12:49;8.93;;;2.83;;
42514;SDS011;28144;49.920;18.730;2023-05-10T14:15:15;3.55;;;1.75;;
42514;SDS011;28144;49.920;18.730;2023-05-10T14:17:41;7.60;;;1.83;;
42514;SDS011;28144;49.920;18.730;2023-05-10T14:20:07;4.63;;;2.35;;
42514;SDS011;28144;49.920;18.730;2023-05-10T14:22:33;5.85;;;1.85;;
42514;SDS011;28144;49.920;18.730;2023-05-10T14:25:00;2.42;;;1.50;;
42514;SDS011;28144;49.920;18.730;2023-05-10T14:27:25;2.28;;;1.40;;
42514;SDS011;28144;49.920;18.730;2023-05-10T14:29:51;2.90;;;1.67;;
42514;SDS011;28144;49.920;18.730;2023-05-10T14:32:18;7.45;;;2.58;;
42514;SDS011;28144;49.920;18.730;2023-05-10T14:34:44;2.42;;;1.70;;
42514;SDS011;28144;49.920;18.730;2023-05-10T14:37:10;4.07;;;1.83;;
42514;SDS011;28144;49.920;18.730;2023-05-10T14:39:37;8.43;;;2.10;;
42514;SDS011;28144;49.920;18.730;2023-05-10T14:42:03;3.38;;;1.70;;
42514;SDS011;28144;49.920;18.730;2023-05-10T14:44:29;3.38;;;1.65;;
42514;SDS011;28144;49.920;18.730;2023-05-10T14:46:55;5.25;;;1.88;;
42514;SDS011;28144;49.920;18.730;2023-05-10T14:49:21;8.55;;;1.90;;
42514;SDS011;28144;49.920;18.730;2023-05-10T14:51:48;4.63;;;1.58;;
42514;SDS011;28144;49.920;18.730;2023-05-10T14:54:14;5.88;;;1.73;;
42514;SDS011;28144;49.920;18.730;2023-05-10T14:56:39;4.22;;;1.85;;
42514;SDS011;28144;49.920;18.730;2023-05-10T14:59:07;2.40;;;1.50;;
42514;SDS011;28144;49.920;18.730;2023-05-10T15:01:33;2.70;;;1.50;;
42514;SDS011;28144;49.920;18.730;2023-05-10T15:04:00;5.38;;;1.95;;
42514;SDS011;28144;49.920;18.730;2023-05-10T15:06:32;4.77;;;2.07;;
42514;SDS011;28144;49.920;18.730;2023-05-10T15:09:00;3.88;;;1.70;;
42514;SDS011;28144;49.920;18.730;2023-05-10T15:11:26;9.70;;;1.90;;
42514;SDS011;28144;49.920;18.730;2023-05-10T15:13:52;2.17;;;1.98;;
42514;SDS011;28144;49.920;18.730;2023-05-10T15:16:18;6.20;;;1.98;;
42514;SDS011;28144;49.920;18.730;2023-05-10T15:18:44;9.30;;;2.20;;
42514;SDS011;28144;49.920;18.730;2023-05-10T15:21:10;6.47;;;2.22;;
42514;SDS011;28144;49.920;18.730;2023-05-10T15:23:36;4.38;;;2.20;;
42514;SDS011;28144;49.920;18.730;2023-05-10T15:26:01;4.40;;;2.23;;
42514;SDS011;28144;49.920;18.730;2023-05-10T15:28:28;5.00;;;2.00;;